Time;durP1;ratioP1;P1;durP2;ratioP2;P2;SDS_P1;SDS_P2;PMS_P1;PMS_P2;Temp;Humidity;BMP_temperature;BMP_pressure;BME280_temperature;BME280_humidity;BME280_pressure;Samples;Min_cycle;Max_cycle;Signal;HPM_P1;HPM_P2
2021/04/03 00:00:36;;;;;;;1.77;1.07;;;;;;;21.15;51.96;100317.84;1771765;79;21134;-63
2021/04/03 00:03:06;;;;;;;1.80;1.20;;;;;;;21.14;51.99;100307.09;1760005;79;21261;-62
2021/04/03 00:05:32;;;;;;;1.82;1.20;;;;;;;21.13;51.98;100309.05;1765553;79;21210;-63
2021/04/03 00:07:59;;;;;;;2.22;1.50;;;;;;;21.12;51.99;100307.98;1762277;79;21243;-62
2021/04/03 00:10:43;;;;;;;2.27;1.72;;;;;;;21.11;51.99;100307.17;1799805;77;21130;-63
2021/04/03 00:13:10;;;;;;;2.20;1.30;;;;;;;21.10;51.99;100304.72;1751067;79;21210;-63
2021/04/03 00:15:36;;;;;;;2.15;1.30;;;;;;;21.08;51.99;100309.23;1791006;78;21100;-61
2021/04/03 00:18:03;;;;;;;1.82;1.15;;;;;;;21.08;52.00;100307.03;1796170;78;21570;-62
2021/04/03 00:20:32;;;;;;;1.82;1.10;;;;;;;21.07;51.99;100309.55;1792320;78;21638;-62
2021/04/03 00:22:58;;;;;;;1.80;1.25;;;;;;;21.06;51.98;100313.45;1791172;78;21154;-61
2021/04/03 00:25:25;;;;;;;1.72;1.00;;;;;;;21.05;52.01;100296.64;1798028;79;21408;-62
2021/04/03 00:27:51;;;;;;;1.87;1.05;;;;;;;21.04;51.98;100298.59;1799404;79;21187;-64
2021/04/03 00:30:18;;;;;;;2.37;1.52;;;;;;;21.04;52.00;100297.20;1798037;77;21120;-61
2021/04/03 00:32:51;;;;;;;3.35;1.60;;;;;;;21.03;51.99;100290.61;1801185;79;22088;-61
2021/04/03 00:35:21;;;;;;;1.95;1.47;;;;;;;21.02;51.99;100298.66;1804751;79;21126;-61
2021/04/03 00:37:48;;;;;;;1.55;1.27;;;;;;;21.02;52.00;100294.52;1800118;79;21183;-61
2021/04/03 00:40:32;;;;;;;1.70;1.17;;;;;;;20.99;51.72;100300.16;1769210;79;21610;-61
2021/04/03 00:42:59;;;;;;;3.08;1.42;;;;;;;20.99;51.72;100300.16;1792652;78;21644;-61
2021/04/03 00:45:25;;;;;;;2.15;1.32;;;;;;;20.97;51.98;100296.33;1794203;77;23603;-61
2021/04/03 00:47:52;;;;;;;2.00;1.40;;;;;;;20.95;51.95;100291.72;1795554;78;21595;-61
2021/04/03 00:50:24;;;;;;;1.95;1.30;;;;;;;20.96;51.95;100300.83;1792833;77;21132;-61
2021/04/03 00:52:50;;;;;;;2.25;1.30;;;;;;;20.93;51.95;100296.75;1795875;78;21633;-62
2021/04/03 00:55:16;;;;;;;1.90;1.20;;;;;;;20.93;51.92;100295.38;1772304;79;21153;-63
2021/04/03 00:57:43;;;;;;;2.00;1.37;;;;;;;20.92;51.91;100300.66;1803266;79;21194;-61
2021/04/03 01:00:31;;;;;;;1.55;1.05;;;;;;;20.91;51.91;100296.29;1800754;79;21171;-62
2021/04/03 01:02:58;;;;;;;3.15;1.47;;;;;;;20.91;51.91;100290.76;1756643;80;21263;-61
2021/04/03 01:05:26;;;;;;;2.12;1.20;;;;;;;20.89;51.90;100288.06;1783758;79;21109;-62
2021/04/03 01:07:54;;;;;;;2.02;1.27;;;;;;;20.90;51.87;100284.17;1754371;80;21168;-62
2021/04/03 01:10:34;;;;;;;1.32;0.93;;;;;;;20.88;51.87;100283.10;1781996;79;21183;-62
2021/04/03 01:13:40;;;;;;;2.27;1.37;;;;;;;20.87;51.85;100280.13;1746337;80;21031;-62
2021/04/03 01:16:18;;;;;;;1.82;1.20;;;;;;;20.86;51.85;100278.50;1764141;80;21153;-61
2021/04/03 01:19:22;;;;;;;2.52;1.60;;;;;;;20.85;51.82;100291.26;1734561;81;21281;-61
2021/04/03 01:22:16;;;;;;;2.15;1.27;;;;;;;20.84;51.77;100281.33;1782094;79;21155;-61
2021/04/03 01:25:22;;;;;;;1.80;1.22;;;;;;;20.81;51.74;100291.11;1785394;79;21225;-61
2021/04/03 01:28:24;;;;;;;2.02;1.40;;;;;;;20.80;51.75;100282.57;1746143;80;21166;-61
2021/04/03 01:30:51;;;;;;;2.40;1.37;;;;;;;20.78;51.71;100283.48;1748700;81;21240;-61
2021/04/03 01:33:20;;;;;;;2.00;1.05;;;;;;;20.77;51.68;100288.77;1781191;79;21134;-61
2021/04/03 01:35:55;;;;;;;2.33;1.35;;;;;;;20.76;51.67;100307.87;1752381;80;21167;-62
2021/04/03 01:38:35;;;;;;;2.00;1.30;;;;;;;20.75;51.68;100297.95;1778525;79;23518;-61
2021/04/03 01:41:03;;;;;;;3.20;1.57;;;;;;;20.74;51.64;100300.50;1773017;79;21233;-61
2021/04/03 01:43:37;;;;;;;2.02;1.40;;;;;;;20.73;51.63;100286.43;1792254;79;21065;-61
2021/04/03 01:46:03;;;;;;;2.22;1.20;;;;;;;20.73;51.62;100292.53;1778559;79;21234;-62
2021/04/03 01:48:30;;;;;;;3.42;1.70;;;;;;;20.72;51.63;100301.39;1783736;79;21575;-64
2021/04/03 01:50:57;;;;;;;3.15;1.62;;;;;;;20.72;51.62;100305.53;1780113;79;21210;-63
2021/04/03 01:53:23;;;;;;;2.25;1.42;;;;;;;20.72;51.62;100305.53;1782672;79;21171;-62
2021/04/03 01:55:51;;;;;;;2.98;1.67;;;;;;;20.71;51.58;100297.59;1792060;79;21558;-62
2021/04/03 01:58:18;;;;;;;2.42;1.50;;;;;;;20.72;51.56;100301.95;1759592;80;21210;-62
2021/04/03 02:00:44;;;;;;;2.20;1.57;;;;;;;20.71;51.56;100291.47;1788990;79;21625;-62
2021/04/03 02:03:10;;;;;;;3.15;1.45;;;;;;;20.70;51.55;100298.16;1783025;79;21194;-62
2021/04/03 02:05:37;;;;;;;3.17;1.60;;;;;;;20.70;51.52;100295.39;1792481;79;21198;-62
2021/04/03 02:08:05;;;;;;;2.40;1.52;;;;;;;20.70;51.50;100289.86;1783805;79;21095;-62
2021/04/03 02:10:32;;;;;;;1.77;1.37;;;;;;;20.69;51.49;100286.04;1782084;79;21250;-62
2021/04/03 02:13:00;;;;;;;2.12;1.50;;;;;;;20.68;51.49;100287.98;1783525;79;21186;-62
2021/04/03 02:15:27;;;;;;;2.50;1.98;;;;;;;20.68;51.44;100286.61;1783768;79;21192;-63
2021/04/03 02:17:56;;;;;;;2.87;1.65;;;;;;;20.63;51.43;100285.39;1788162;79;21151;-62
2021/04/03 02:20:23;;;;;;;2.37;1.80;;;;;;;20.67;51.41;100296.59;1786658;79;21140;-62
2021/04/03 02:22:49;;;;;;;2.10;1.50;;;;;;;20.67;51.38;100296.59;1752663;79;21656;-62
2021/04/03 02:25:16;;;;;;;2.30;1.75;;;;;;;20.65;51.37;100287.84;1779153;79;21147;-64
2021/04/03 02:27:43;;;;;;;2.80;1.70;;;;;;;20.66;51.33;100283.38;1788346;79;21555;-62
2021/04/03 02:30:17;;;;;;;2.27;1.60;;;;;;;20.65;51.32;100290.03;1784528;79;21123;-63
2021/04/03 02:32:50;;;;;;;3.00;1.70;;;;;;;20.64;51.26;100292.55;1783413;79;21183;-63
2021/04/03 02:35:18;;;;;;;3.10;1.50;;;;;;;20.63;51.27;100291.49;1784612;79;21130;-63
2021/04/03 02:37:46;;;;;;;3.37;1.70;;;;;;;20.62;51.25;100298.19;1781047;79;21131;-62
2021/04/03 02:40:16;;;;;;;2.60;1.67;;;;;;;20.61;51.22;100308.42;1749562;80;21216;-63
2021/04/03 02:43:03;;;;;;;2.70;1.67;;;;;;;20.60;51.20;100306.80;1780649;79;21202;-63
2021/04/03 02:45:55;;;;;;;2.45;1.60;;;;;;;20.60;51.17;100310.12;1753892;81;21163;-63
2021/04/03 02:48:22;;;;;;;2.92;1.85;;;;;;;20.59;51.15;100309.31;1780105;79;21179;-62
2021/04/03 02:50:52;;;;;;;2.10;1.40;;;;;;;20.56;51.13;100305.83;1748502;80;21249;-63
2021/04/03 02:53:27;;;;;;;2.80;1.77;;;;;;;20.55;51.11;100302.81;1775578;80;21202;-63
2021/04/03 02:55:51;;;;;;;2.70;1.52;;;;;;;20.55;51.09;100304.20;1784280;79;21206;-63
2021/04/03 02:58:20;;;;;;;2.27;1.55;;;;;;;20.54;51.07;100307.31;1745226;80;21161;-62
2021/04/03 03:00:47;;;;;;;2.92;1.60;;;;;;;20.53;51.07;100300.97;1733820;80;21138;-62
2021/04/03 03:03:14;;;;;;;2.25;1.60;;;;;;;20.51;51.04;100293.00;1720593;81;21156;-62
2021/04/03 03:05:41;;;;;;;2.37;1.72;;;;;;;20.52;51.01;100307.63;1750207;81;21170;-62
2021/04/03 03:08:08;;;;;;;2.50;1.70;;;;;;;20.52;51.00;100309.02;1731075;80;21252;-63
2021/04/03 03:10:37;;;;;;;1.95;1.40;;;;;;;20.50;50.99;100306.56;1747488;81;21582;-62
2021/04/03 03:13:03;;;;;;;2.45;1.75;;;;;;;20.50;50.99;100301.61;1793658;79;21181;-62
2021/04/03 03:15:31;;;;;;;3.22;1.55;;;;;;;20.50;50.96;100302.98;1770189;79;21483;-62
2021/04/03 03:17:58;;;;;;;2.87;1.77;;;;;;;20.48;50.95;100297.81;1791507;78;22092;-62
2021/04/03 03:20:25;;;;;;;4.17;1.60;;;;;;;20.48;50.95;100310.81;1790917;79;21419;-62
2021/04/03 03:22:51;;;;;;;1.95;1.45;;;;;;;20.47;50.90;100314.14;1786590;79;21182;-62
2021/04/03 03:25:17;;;;;;;2.65;1.72;;;;;;;20.46;50.89;100308.36;1789757;79;21207;-62
2021/04/03 03:27:45;;;;;;;2.75;1.77;;;;;;;20.45;50.88;100310.88;1759136;79;21537;-62
2021/04/03 03:30:15;;;;;;;2.67;1.77;;;;;;;20.45;50.88;100311.48;1796556;78;22289;-62
2021/04/03 03:32:42;;;;;;;1.90;1.47;;;;;;;20.44;50.83;100302.94;1788131;79;21201;-61
2021/04/03 03:35:10;;;;;;;2.77;1.90;;;;;;;20.43;50.83;100304.89;1791799;79;21211;-62
2021/04/03 03:37:36;;;;;;;3.30;1.90;;;;;;;20.43;50.83;100316.50;1790016;79;21076;-62
2021/04/03 03:40:05;;;;;;;3.60;1.70;;;;;;;20.40;50.79;100306.94;1756758;79;21174;-62
2021/04/03 03:42:31;;;;;;;3.08;2.10;;;;;;;20.40;50.79;100303.36;1791270;79;22371;-62
2021/04/03 03:44:58;;;;;;;2.87;1.95;;;;;;;20.40;50.78;100314.41;1794112;78;21201;-62
2021/04/03 03:47:24;;;;;;;3.37;2.12;;;;;;;20.39;50.75;100314.16;1790221;78;21170;-63
2021/04/03 03:49:51;;;;;;;2.45;1.70;;;;;;;20.39;50.74;100312.77;1789143;79;21165;-63
2021/04/03 03:52:17;;;;;;;2.52;1.72;;;;;;;20.38;50.71;100318.87;1790500;79;21185;-63
2021/04/03 03:54:43;;;;;;;2.27;1.62;;;;;;;20.38;50.71;100315.29;1788527;79;22267;-63
2021/04/03 03:57:10;;;;;;;2.62;1.87;;;;;;;20.37;50.70;100324.70;1791584;79;21276;-63
2021/04/03 03:59:37;;;;;;;2.42;1.62;;;;;;;20.35;50.73;100317.34;1789438;78;21145;-63
2021/04/03 04:02:04;;;;;;;3.35;1.95;;;;;;;20.35;50.75;100323.67;1791071;79;21126;-63
2021/04/03 04:04:31;;;;;;;2.62;1.77;;;;;;;20.35;50.74;100338.05;1780637;79;21183;-63
2021/04/03 04:06:57;;;;;;;2.90;1.95;;;;;;;20.36;50.74;100337.73;1779674;79;21540;-63
2021/04/03 04:09:25;;;;;;;3.20;1.80;;;;;;;20.38;50.72;100348.45;1779487;79;21257;-63
2021/04/03 04:11:51;;;;;;;3.52;2.20;;;;;;;20.38;50.72;100344.30;1778524;79;21196;-63
2021/04/03 04:14:18;;;;;;;2.85;1.80;;;;;;;20.40;50.71;100344.23;1780064;79;21164;-63
2021/04/03 04:16:44;;;;;;;3.10;1.98;;;;;;;20.42;50.70;100335.59;1777821;79;21106;-63
2021/04/03 04:19:11;;;;;;;3.02;1.77;;;;;;;20.45;50.68;100346.02;1776053;79;21196;-63
2021/04/03 04:21:38;;;;;;;2.72;1.80;;;;;;;20.45;50.68;100346.80;1775760;79;21996;-63
2021/04/03 04:24:06;;;;;;;2.22;1.75;;;;;;;20.48;50.63;100346.73;1780637;78;21570;-61
2021/04/03 04:26:32;;;;;;;3.40;2.22;;;;;;;20.50;50.63;100337.53;1780571;79;21176;-61
2021/04/03 04:28:59;;;;;;;3.02;1.85;;;;;;;20.53;50.62;100345.75;1779826;79;21104;-61
2021/04/03 04:31:26;;;;;;;2.50;1.90;;;;;;;20.55;50.60;100343.45;1778122;79;21199;-61
2021/04/03 04:33:53;;;;;;;2.83;1.82;;;;;;;20.57;50.56;100342.01;1779542;79;21234;-61
2021/04/03 04:36:19;;;;;;;2.40;1.98;;;;;;;20.58;50.55;100333.94;1775439;80;21693;-61
2021/04/03 04:38:45;;;;;;;2.75;1.85;;;;;;;20.60;50.52;100331.67;1778765;79;21206;-62
2021/04/03 04:41:12;;;;;;;2.50;1.85;;;;;;;20.62;50.54;100340.46;1781131;79;21177;-62
2021/04/03 04:43:38;;;;;;;4.58;2.08;;;;;;;20.64;50.50;100348.41;1779360;79;21523;-61
2021/04/03 04:46:05;;;;;;;3.58;2.00;;;;;;;20.65;50.50;100346.70;1777920;79;21151;-61
2021/04/03 04:48:31;;;;;;;2.35;1.42;;;;;;;20.67;50.47;100354.64;1777442;79;21232;-61
2021/04/03 04:50:58;;;;;;;2.62;2.00;;;;;;;20.71;50.45;100360.58;1775165;79;21668;-61
2021/04/03 04:53:24;;;;;;;3.40;1.95;;;;;;;20.73;50.42;100354.16;1714931;82;21241;-61
2021/04/03 04:55:50;;;;;;;2.70;1.85;;;;;;;20.75;50.40;100353.84;1741968;80;21249;-61
2021/04/03 04:58:17;;;;;;;3.15;2.05;;;;;;;20.78;50.37;100354.56;1734139;81;21186;-62
2021/04/03 05:00:43;;;;;;;3.10;1.87;;;;;;;20.79;50.34;100348.67;1731116;81;21153;-61
2021/04/03 05:03:10;;;;;;;2.83;1.60;;;;;;;20.81;50.30;100350.56;1739048;81;21222;-63
2021/04/03 05:05:36;;;;;;;2.62;1.77;;;;;;;20.83;50.29;100344.14;1740384;81;21150;-61
2021/04/03 05:08:03;;;;;;;2.50;1.70;;;;;;;20.84;50.28;100349.89;1742011;81;21561;-59
2021/04/03 05:10:30;;;;;;;2.85;1.92;;;;;;;20.86;50.26;100355.91;1731126;81;21597;-61
2021/04/03 05:13:01;;;;;;;3.12;1.90;;;;;;;20.88;50.26;100359.71;1750168;80;21147;-60
2021/04/03 05:15:27;;;;;;;2.70;1.90;;;;;;;20.90;50.23;100361.02;1740933;81;21113;-59
2021/04/03 05:17:54;;;;;;;2.60;1.57;;;;;;;20.91;50.23;100355.74;1731682;81;21040;-60
2021/04/03 05:20:21;;;;;;;2.83;1.82;;;;;;;20.94;50.16;100364.75;1738775;80;21629;-59
2021/04/03 05:22:47;;;;;;;3.30;2.00;;;;;;;20.96;50.15;100364.43;1726415;81;21144;-60
2021/04/03 05:25:14;;;;;;;2.40;1.65;;;;;;;20.97;50.13;100360.50;1747394;81;21710;-60
2021/04/03 05:27:41;;;;;;;3.15;1.98;;;;;;;21.00;50.11;100357.09;1741448;81;21541;-61
2021/04/03 05:30:09;;;;;;;3.25;2.00;;;;;;;21.02;50.09;100351.21;1728318;81;21145;-61
2021/04/03 05:32:36;;;;;;;2.90;1.98;;;;;;;21.03;50.04;100333.48;1728330;81;21583;-61
2021/04/03 05:35:04;;;;;;;2.62;1.80;;;;;;;21.05;50.06;100342.27;1734769;80;21546;-60
2021/04/03 05:37:31;;;;;;;2.65;2.17;;;;;;;21.07;49.95;100339.97;1743451;81;21619;-64
2021/04/03 05:39:58;;;;;;;3.12;1.98;;;;;;;21.08;49.41;100347.14;1739145;81;22127;-63
2021/04/03 05:42:24;;;;;;;3.52;2.10;;;;;;;21.08;48.82;100349.91;1742647;81;21249;-62
2021/04/03 05:44:51;;;;;;;3.05;1.65;;;;;;;21.07;47.95;100347.70;1743686;81;21268;-61
2021/04/03 05:47:17;;;;;;;4.83;1.90;;;;;;;21.06;47.16;100357.14;1741276;81;21245;-63
2021/04/03 05:49:43;;;;;;;2.50;1.70;;;;;;;21.05;46.47;100363.80;1742049;81;21193;-62
2021/04/03 05:52:10;;;;;;;3.30;1.82;;;;;;;21.05;45.88;100363.02;1739860;81;21466;-62
2021/04/03 05:54:38;;;;;;;2.30;1.75;;;;;;;21.04;45.29;100366.92;1742038;81;21540;-61
2021/04/03 05:57:07;;;;;;;2.45;1.67;;;;;;;21.02;44.65;100364.48;1742054;81;21370;-61
2021/04/03 05:59:34;;;;;;;2.62;1.70;;;;;;;21.02;44.06;100359.51;1742228;81;21193;-62
2021/04/03 06:02:01;;;;;;;2.30;1.77;;;;;;;21.00;43.53;100361.24;1744278;81;21241;-61
2021/04/03 06:04:28;;;;;;;3.95;2.12;;;;;;;20.97;43.06;100360.50;1736956;81;22250;-62
2021/04/03 06:06:55;;;;;;;3.52;1.82;;;;;;;20.97;42.59;100370.18;1737114;81;21126;-62
2021/04/03 06:09:21;;;;;;;5.03;1.80;;;;;;;20.94;42.16;100356.45;1736631;81;21226;-65
2021/04/03 06:11:49;;;;;;;2.35;1.75;;;;;;;20.93;41.73;100356.77;1739068;81;21265;-63
2021/04/03 06:14:17;;;;;;;3.98;1.57;;;;;;;20.91;41.39;100358.51;1760666;79;21217;-61
2021/04/03 06:16:45;;;;;;;3.65;1.42;;;;;;;20.89;41.00;100352.48;1739689;81;21185;-62
2021/04/03 06:19:23;;;;;;;4.90;2.05;;;;;;;20.88;40.72;100359.71;1792304;79;21155;-61
2021/04/03 06:21:57;;;;;;;2.00;1.52;;;;;;;20.85;40.51;100362.58;1793417;79;22381;-62
2021/04/03 06:24:34;;;;;;;2.45;1.65;;;;;;;20.86;40.28;100362.83;1792827;78;21478;-61
2021/04/03 06:27:08;;;;;;;3.50;1.87;;;;;;;20.85;40.04;100357.05;1787365;79;21105;-62
2021/04/03 06:29:43;;;;;;;2.37;1.47;;;;;;;20.84;39.82;100363.72;1793032;79;22450;-61
2021/04/03 06:32:19;;;;;;;3.33;1.85;;;;;;;20.84;39.66;100358.19;1788981;79;21167;-62
2021/04/03 06:34:47;;;;;;;1.90;1.40;;;;;;;20.84;39.45;100369.24;1771968;79;21211;-62
2021/04/03 06:37:14;;;;;;;2.98;1.60;;;;;;;20.82;39.24;100363.25;1790376;79;21607;-62
2021/04/03 06:39:56;;;;;;;3.62;1.50;;;;;;;20.83;39.04;100370.97;1740941;80;21121;-61
2021/04/03 06:42:52;;;;;;;4.50;1.52;;;;;;;20.81;38.96;100376.00;1743108;81;21223;-61
2021/04/03 06:45:32;;;;;;;2.25;1.70;;;;;;;20.81;38.83;100377.39;1743925;81;21209;-61
2021/04/03 06:48:01;;;;;;;2.42;1.70;;;;;;;20.81;38.72;100372.67;1743347;81;21207;-61
2021/04/03 06:50:39;;;;;;;3.25;1.45;;;;;;;20.81;38.65;100379.59;1791287;78;21758;-61
2021/04/03 06:53:12;;;;;;;3.45;1.60;;;;;;;20.81;38.54;100380.97;1790241;79;21285;-62
2021/04/03 06:55:41;;;;;;;3.22;1.60;;;;;;;20.82;38.37;100372.11;1784373;79;21211;-60
2021/04/03 06:58:08;;;;;;;4.10;1.32;;;;;;;20.81;38.35;100367.14;1773972;79;21542;-60
2021/04/03 07:00:35;;;;;;;2.33;1.32;;;;;;;20.82;38.35;100363.25;1787174;79;21151;-60
2021/04/03 07:03:17;;;;;;;2.87;1.40;;;;;;;20.82;38.28;100357.72;1787319;79;21661;-60
2021/04/03 07:05:45;;;;;;;2.25;1.05;;;;;;;20.82;38.40;100358.28;1787454;78;21151;-60
2021/04/03 07:08:11;;;;;;;4.78;1.85;;;;;;;20.80;38.89;100355.84;1785558;79;21203;-58
2021/04/03 07:10:39;;;;;;;2.52;1.10;;;;;;;20.82;39.37;100360.48;1787677;78;21178;-61
2021/04/03 07:13:06;;;;;;;2.50;1.20;;;;;;;20.85;39.61;100357.62;1798759;79;23472;-61
2021/04/03 07:15:33;;;;;;;2.25;1.27;;;;;;;20.92;39.81;100360.11;1789642;79;21215;-60
2021/04/03 07:18:00;;;;;;;2.12;1.12;;;;;;;21.04;40.00;100368.30;1788908;79;21221;-61
2021/04/03 07:20:28;;;;;;;2.10;1.00;;;;;;;21.12;40.19;100358.63;1760203;80;21197;-60
2021/04/03 07:23:01;;;;;;;4.47;1.50;;;;;;;21.22;40.38;100354.08;1761526;80;21245;-62
2021/04/03 07:25:33;;;;;;;1.77;0.80;;;;;;;21.32;40.55;100354.29;1740245;81;21278;-60
2021/04/03 07:28:00;;;;;;;3.50;1.15;;;;;;;21.42;40.72;100356.69;1741946;81;21697;-59
2021/04/03 07:30:38;;;;;;;4.25;1.87;;;;;;;21.50;40.88;100350.86;1734469;81;21648;-61
2021/04/03 07:33:17;;;;;;;2.27;0.98;;;;;;;21.58;41.04;100348.61;1744533;81;21186;-60
2021/04/03 07:35:55;;;;;;;3.25;0.98;;;;;;;21.65;41.19;100348.89;1792217;79;21235;-61
2021/04/03 07:38:31;;;;;;;1.27;0.90;;;;;;;21.70;41.31;100341.20;1790907;79;21666;-60
2021/04/03 07:41:03;;;;;;;2.02;1.00;;;;;;;21.77;41.45;100343.42;1791388;79;21577;-60
2021/04/03 07:43:39;;;;;;;3.12;0.88;;;;;;;21.80;41.58;100337.23;1786738;79;21215;-60
2021/04/03 07:46:11;;;;;;;2.20;1.10;;;;;;;21.84;41.70;100342.33;1785793;78;21147;-60
2021/04/03 07:48:51;;;;;;;2.33;1.32;;;;;;;21.86;41.84;100347.77;1748006;79;21193;-61
2021/04/03 07:51:26;;;;;;;2.25;1.00;;;;;;;21.87;41.97;100350.78;1755323;81;21388;-61
2021/04/03 07:53:55;;;;;;;1.40;0.70;;;;;;;21.90;42.12;100356.20;1756996;80;21167;-61
2021/04/03 07:56:28;;;;;;;5.55;2.20;;;;;;;21.93;42.26;100361.69;1734299;81;21216;-60
2021/04/03 07:58:58;;;;;;;1.35;0.60;;;;;;;21.95;42.37;100358.81;1744554;81;21205;-62
2021/04/03 08:01:27;;;;;;;2.45;0.72;;;;;;;21.97;42.49;100352.94;1792000;79;21178;-60
2021/04/03 08:04:03;;;;;;;0.98;0.70;;;;;;;21.97;42.63;100344.06;1793505;78;21559;-60
2021/04/03 08:06:32;;;;;;;2.15;0.70;;;;;;;21.99;42.74;100347.29;1789139;78;21198;-60
2021/04/03 08:09:01;;;;;;;1.95;0.68;;;;;;;21.98;42.85;100339.34;1795558;79;21208;-60
2021/04/03 08:11:28;;;;;;;1.92;0.70;;;;;;;22.00;42.97;100339.80;1798780;78;21630;-55
2021/04/03 08:13:57;;;;;;;0.80;0.65;;;;;;;21.97;43.08;100345.45;1787890;79;21201;-55
2021/04/03 08:17:45;;;;;;;1.47;0.60;;;;;;;21.94;43.19;100348.87;1735273;81;21589;-57
2021/04/03 08:19:31;;;;;;;5.12;0.98;;;;;;;21.93;43.34;100350.61;1731731;80;21478;-56
2021/04/03 08:21:57;;;;;;;1.77;0.67;;;;;;;21.90;43.50;100345.72;1790119;79;21624;-55
2021/04/03 08:24:24;;;;;;;1.27;0.72;;;;;;;21.85;43.66;100341.19;1784935;79;21202;-55
2021/04/03 08:26:51;;;;;;;1.67;0.65;;;;;;;21.83;43.81;100346.25;1789174;79;21190;-56
2021/04/03 08:29:33;;;;;;;2.25;0.60;;;;;;;21.79;44.02;100348.88;1784852;79;22184;-56
2021/04/03 08:32:01;;;;;;;0.78;0.60;;;;;;;21.77;44.18;100353.11;1789418;79;21212;-56
2021/04/03 08:34:27;;;;;;;1.92;0.70;;;;;;;21.74;44.39;100344.92;1789184;79;21126;-57
2021/04/03 08:36:54;;;;;;;0.90;0.70;;;;;;;21.70;44.56;100349.52;1790861;79;21534;-56
2021/04/03 08:39:22;;;;;;;1.47;0.85;;;;;;;21.66;44.72;100346.36;1791286;79;21094;-56
2021/04/03 08:41:51;;;;;;;0.80;0.60;;;;;;;21.62;44.93;100350.38;1792946;79;21593;-56
2021/04/03 08:44:29;;;;;;;1.67;0.72;;;;;;;21.57;45.12;100340.88;1788325;79;21209;-55
2021/04/03 08:47:03;;;;;;;1.67;0.95;;;;;;;21.53;45.33;100341.87;1791060;79;21193;-53
2021/04/03 08:49:36;;;;;;;1.20;0.80;;;;;;;21.47;45.53;100344.63;1786583;79;21207;-55
2021/04/03 08:52:07;;;;;;;1.20;0.65;;;;;;;21.40;45.77;100337.64;1788491;79;21225;-58
2021/04/03 08:54:39;;;;;;;1.10;0.80;;;;;;;21.34;45.95;100334.81;1789917;79;21632;-59
2021/04/03 08:57:26;;;;;;;1.20;0.62;;;;;;;21.29;46.17;100326.73;1793096;79;38325;-58
2021/04/03 08:59:57;;;;;;;1.10;0.55;;;;;;;21.27;46.28;100326.23;1788567;79;21206;-58
2021/04/03 09:02:24;;;;;;;1.37;0.62;;;;;;;21.25;46.29;100326.34;1794236;79;21637;-58
2021/04/03 09:04:50;;;;;;;1.10;0.72;;;;;;;21.24;46.33;100328.86;1785722;78;21152;-58
2021/04/03 09:07:32;;;;;;;3.22;0.72;;;;;;;21.23;46.41;100328.61;1744796;81;22966;-58
2021/04/03 09:10:14;;;;;;;1.35;0.60;;;;;;;21.22;46.45;100325.60;1732349;81;21199;-59
2021/04/03 09:12:42;;;;;;;2.10;0.70;;;;;;;21.20;46.54;100327.34;1792791;78;21106;-59
2021/04/03 09:15:30;;;;;;;0.75;0.60;;;;;;;21.18;46.62;100327.41;1790483;78;21217;-60
2021/04/03 09:17:58;;;;;;;0.93;0.53;;;;;;;21.16;46.74;100328.33;1792635;78;21126;-58
2021/04/03 09:20:28;;;;;;;2.27;0.60;;;;;;;21.16;46.81;100324.19;1793933;78;23527;-58
2021/04/03 09:23:04;;;;;;;2.15;0.60;;;;;;;21.15;46.91;100314.25;1793660;78;21151;-58
2021/04/03 09:25:31;;;;;;;1.15;0.60;;;;;;;21.16;46.94;100304.82;1794110;78;21197;-58
2021/04/03 09:28:10;;;;;;;0.80;0.60;;;;;;;21.19;46.95;100309.68;1790462;78;21626;-58
2021/04/03 09:30:41;;;;;;;1.35;0.80;;;;;;;21.22;46.93;100299.31;1791740;78;21156;-59
2021/04/03 09:33:25;;;;;;;1.00;0.57;;;;;;;21.24;46.90;100292.89;1789920;78;22223;-59
2021/04/03 09:35:53;;;;;;;1.32;0.60;;;;;;;21.28;46.88;100287.74;1801538;78;21585;-57
2021/04/03 09:38:30;;;;;;;2.60;0.62;;;;;;;21.35;46.89;100294.94;1795357;78;21541;-57
2021/04/03 09:40:56;;;;;;;2.47;0.80;;;;;;;21.39;46.87;100293.12;1799891;78;21212;-59
2021/04/03 09:43:41;;;;;;;0.50;0.50;;;;;;;21.48;46.82;100304.70;1797075;78;21185;-58
2021/04/03 09:46:07;;;;;;;0.90;0.60;;;;;;;21.55;46.78;100298.90;1804409;78;22189;-59
2021/04/03 09:48:34;;;;;;;1.17;0.70;;;;;;;21.61;46.72;100297.53;1803145;78;21581;-58
2021/04/03 09:51:05;;;;;;;2.35;0.70;;;;;;;21.68;46.65;100298.40;1795563;78;21431;-58
2021/04/03 09:53:32;;;;;;;1.80;0.65;;;;;;;21.73;46.63;100299.56;1763732;78;21223;-58
2021/04/03 09:55:58;;;;;;;1.10;0.62;;;;;;;21.79;46.57;100299.61;1802512;78;21138;-58
2021/04/03 09:58:25;;;;;;;0.90;0.55;;;;;;;21.84;46.56;100296.07;1795649;78;21209;-58
2021/04/03 10:00:52;;;;;;;1.27;0.70;;;;;;;21.90;46.50;100291.72;1795815;78;21487;-58
2021/04/03 10:03:19;;;;;;;1.47;0.60;;;;;;;21.95;46.47;100297.06;1795784;78;21124;-58
2021/04/03 10:05:46;;;;;;;0.82;0.60;;;;;;;22.00;46.45;100299.05;1797301;78;21202;-59
2021/04/03 10:08:12;;;;;;;0.78;0.45;;;;;;;22.04;46.43;100290.88;1795634;78;21118;-58
2021/04/03 10:10:39;;;;;;;1.82;0.60;;;;;;;22.07;46.39;100304.03;1796295;78;21226;-63
2021/04/03 10:13:07;;;;;;;0.98;0.65;;;;;;;22.10;46.38;100295.06;1790588;78;21342;-58
2021/04/03 10:15:37;;;;;;;0.68;0.47;;;;;;;22.13;46.37;100293.00;1795593;78;21261;-58
2021/04/03 10:18:04;;;;;;;1.43;0.70;;;;;;;22.15;46.32;100290.71;1791106;78;21187;-58
2021/04/03 10:20:31;;;;;;;2.33;0.62;;;;;;;22.15;46.29;100290.11;1791374;78;21267;-59
2021/04/03 10:22:58;;;;;;;0.65;0.50;;;;;;;22.18;46.27;100295.56;1796154;78;22164;-58
2021/04/03 10:25:24;;;;;;;1.42;0.47;;;;;;;22.19;46.27;100291.05;1797118;78;21135;-58
2021/04/03 10:27:51;;;;;;;1.62;0.50;;;;;;;22.20;46.25;100292.67;1799428;78;21206;-58
2021/04/03 10:30:20;;;;;;;0.98;0.70;;;;;;;22.22;46.24;100289.57;1800377;78;21181;-59
2021/04/03 10:32:47;;;;;;;0.72;0.50;;;;;;;22.24;46.21;100294.18;1791984;78;21214;-59
2021/04/03 10:35:14;;;;;;;0.57;0.40;;;;;;;22.24;46.20;100289.45;1792007;78;21729;-58
2021/04/03 10:37:41;;;;;;;1.75;0.65;;;;;;;22.25;46.20;100291.65;1800797;78;21355;-59
2021/04/03 10:40:09;;;;;;;0.80;0.50;;;;;;;22.25;46.18;100290.27;1794224;78;21196;-58
2021/04/03 10:42:35;;;;;;;1.50;0.82;;;;;;;22.27;46.19;100285.20;1827324;77;21201;-58
2021/04/03 10:45:02;;;;;;;1.15;0.65;;;;;;;;;;1794389;78;21252;-58
2021/04/03 10:47:28;;;;;;;1.87;0.50;;;;;;;22.28;46.17;100284.84;1800862;78;21645;-58
2021/04/03 10:49:55;;;;;;;1.27;0.65;;;;;;;22.28;46.17;100276.53;1802215;78;21185;-58
2021/04/03 10:52:22;;;;;;;0.85;0.60;;;;;;;22.29;46.15;100281.50;1798955;78;21323;-58
2021/04/03 10:54:48;;;;;;;1.62;0.75;;;;;;;22.29;46.15;100266.27;1794643;78;21660;-59
2021/04/03 10:57:15;;;;;;;4.20;1.00;;;;;;;22.29;46.12;100265.69;1790642;78;21210;-58
2021/04/03 10:59:41;;;;;;;1.17;0.80;;;;;;;22.30;46.13;100268.70;1794258;78;21193;-58
2021/04/03 11:02:08;;;;;;;2.00;0.65;;;;;;;22.31;46.13;100263.97;1797775;78;21145;-58
2021/04/03 11:04:34;;;;;;;1.12;0.70;;;;;;;22.31;46.13;100251.50;1790788;78;21669;-58
2021/04/03 11:07:02;;;;;;;3.92;3.02;;;;;;;22.31;46.12;100255.66;1793452;78;21616;-58
2021/04/03 11:09:28;;;;;;;15.40;13.03;;;;;;;22.30;46.11;100249.88;1799411;78;21154;-58
2021/04/03 11:11:55;;;;;;;28.50;22.35;;;;;;;22.29;46.13;100252.41;1799446;78;21205;-58
2021/04/03 11:14:21;;;;;;;38.63;26.87;;;;;;;22.27;46.14;100249.18;1791410;78;21119;-59
2021/04/03 11:16:48;;;;;;;38.95;27.25;;;;;;;22.24;46.22;100244.30;1797909;78;21162;-58
2021/04/03 11:19:15;;;;;;;39.73;28.25;;;;;;;22.23;46.34;100243.52;1793536;78;21186;-58
2021/04/03 11:21:41;;;;;;;44.60;28.27;;;;;;;22.22;46.47;100234.16;1794171;78;21186;-58
2021/04/03 11:24:09;;;;;;;46.37;29.05;;;;;;;22.21;46.63;100233.34;1796375;78;22250;-58
2021/04/03 11:26:36;;;;;;;47.75;29.42;;;;;;;22.20;46.79;100231.71;1797840;78;21170;-58
2021/04/03 11:29:02;;;;;;;45.38;29.02;;;;;;;22.20;46.94;100236.44;1797884;78;21145;-57
2021/04/03 11:31:29;;;;;;;43.95;26.75;;;;;;;22.17;47.13;100222.70;1796571;78;21159;-58
2021/04/03 11:33:57;;;;;;;42.73;26.40;;;;;;;22.17;47.28;100217.73;1798451;78;21187;-58
2021/04/03 11:36:23;;;;;;;37.28;23.98;;;;;;;22.16;47.44;100207.80;1793412;78;21193;-58